sensor_id;sensor_type;location;lat;lon;timestamp;temperature;humidity
64685;DHT22;51109;47.414;18.954;2023-03-14T00:01:17;6.90;99.90
64685;DHT22;51109;47.414;18.954;2023-03-14T00:03:46;7.00;99.90
64685;DHT22;51109;47.414;18.954;2023-03-14T00:06:12;7.00;99.90
64685;DHT22;51109;47.414;18.954;2023-03-14T00:08:39;7.00;99.90
64685;DHT22;51109;47.414;18.954;2023-03-14T00:11:11;7.00;99.90
64685;DHT22;51109;47.414;18.954;2023-03-14T00:13:37;7.00;99.90
64685;DHT22;51109;47.414;18.954;2023-03-14T00:16:04;7.00;99.90
64685;DHT22;51109;47.414;18.954;2023-03-14T00:18:32;7.00;99.90
64685;DHT22;51109;47.414;18.954;2023-03-14T00:21:02;7.00;99.90
64685;DHT22;51109;47.414;18.954;2023-03-14T00:23:29;7.00;99.90
64685;DHT22;51109;47.414;18.954;2023-03-14T00:25:59;7.00;99.90
64685;DHT22;51109;47.414;18.954;2023-03-14T00:28:26;6.90;99.90
64685;DHT22;51109;47.414;18.954;2023-03-14T00:30:52;6.90;99.90
64685;DHT22;51109;47.414;18.954;2023-03-14T00:33:18;6.90;99.90
64685;DHT22;51109;47.414;18.954;2023-03-14T00:35:51;7.00;99.90
64685;DHT22;51109;47.414;18.954;2023-03-14T00:38:17;7.00;99.90
64685;DHT22;51109;47.414;18.954;2023-03-14T00:40:43;7.00;99.90
64685;DHT22;51109;47.414;18.954;2023-03-14T00:43:09;7.00;99.90
64685;DHT22;51109;47.414;18.954;2023-03-14T00:45:34;7.00;99.90
64685;DHT22;51109;47.414;18.954;2023-03-14T00:48:00;7.00;99.90
64685;DHT22;51109;47.414;18.954;2023-03-14T00:50:27;7.10;99.90
64685;DHT22;51109;47.414;18.954;2023-03-14T00:52:53;7.10;99.90
64685;DHT22;51109;47.414;18.954;2023-03-14T00:55:19;7.20;99.90
64685;DHT22;51109;47.414;18.954;2023-03-14T00:57:44;7.10;99.90
64685;DHT22;51109;47.414;18.954;2023-03-14T01:00:11;7.10;99.90
64685;DHT22;51109;47.414;18.954;2023-03-14T01:02:38;7.20;99.90
64685;DHT22;51109;47.414;18.954;2023-03-14T01:05:05;7.20;99.90
64685;DHT22;51109;47.414;18.954;2023-03-14T01:07:31;7.10;99.90
64685;DHT22;51109;47.414;18.954;2023-03-14T01:09:57;7.10;99.90
64685;DHT22;51109;47.414;18.954;2023-03-14T01:12:23;7.00;99.90
64685;DHT22;51109;47.414;18.954;2023-03-14T01:14:48;7.10;99.90
64685;DHT22;51109;47.414;18.954;2023-03-14T01:17:14;7.10;99.90
64685;DHT22;51109;47.414;18.954;2023-03-14T01:19:41;7.10;99.90
64685;DHT22;51109;47.414;18.954;2023-03-14T01:22:06;7.00;99.90
64685;DHT22;51109;47.414;18.954;2023-03-14T01:24:32;7.00;99.90
64685;DHT22;51109;47.414;18.954;2023-03-14T01:26:58;7.00;99.90
64685;DHT22;51109;47.414;18.954;2023-03-14T01:29:24;6.90;99.90
64685;DHT22;51109;47.414;18.954;2023-03-14T01:31:50;6.90;99.90
64685;DHT22;51109;47.414;18.954;2023-03-14T01:34:16;6.90;99.90
64685;DHT22;51109;47.414;18.954;2023-03-14T01:36:42;6.80;99.90
64685;DHT22;51109;47.414;18.954;2023-03-14T01:39:08;6.80;99.90
64685;DHT22;51109;47.414;18.954;2023-03-14T01:41:35;6.70;99.90
64685;DHT22;51109;47.414;18.954;2023-03-14T01:44:01;6.70;99.90
64685;DHT22;51109;47.414;18.954;2023-03-14T01:49:13;6.60;99.90
64685;DHT22;51109;47.414;18.954;2023-03-14T01:56:50;6.60;99.90
64685;DHT22;51109;47.414;18.954;2023-03-14T01:59:18;6.60;99.90
64685;DHT22;51109;47.414;18.954;2023-03-14T02:04:12;6.60;99.90
64685;DHT22;51109;47.414;18.954;2023-03-14T02:07:03;6.60;99.90
64685;DHT22;51109;47.414;18.954;2023-03-14T02:09:31;6.50;99.90
64685;DHT22;51109;47.414;18.954;2023-03-14T02:11:58;6.50;99.90
64685;DHT22;51109;47.414;18.954;2023-03-14T02:14:42;6.50;99.90
64685;DHT22;51109;47.414;18.954;2023-03-14T02:17:16;6.50;99.90
64685;DHT22;51109;47.414;18.954;2023-03-14T02:22:45;6.40;99.90
64685;DHT22;51109;47.414;18.954;2023-03-14T02:27:56;6.40;99.90
64685;DHT22;51109;47.414;18.954;2023-03-14T02:30:25;6.40;99.90
64685;DHT22;51109;47.414;18.954;2023-03-14T02:32:55;6.50;99.90
64685;DHT22;51109;47.414;18.954;2023-03-14T02:35:25;6.50;99.90
64685;DHT22;51109;47.414;18.954;2023-03-14T02:38:03;6.50;99.90
64685;DHT22;51109;47.414;18.954;2023-03-14T02:40:32;6.40;99.90
64685;DHT22;51109;47.414;18.954;2023-03-14T02:42:58;6.40;99.90
64685;DHT22;51109;47.414;18.954;2023-03-14T02:45:28;6.40;99.90
64685;DHT22;51109;47.414;18.954;2023-03-14T02:48:04;6.40;99.90
64685;DHT22;51109;47.414;18.954;2023-03-14T02:50:33;6.40;99.90
64685;DHT22;51109;47.414;18.954;2023-03-14T02:52:59;6.40;99.90
64685;DHT22;51109;47.414;18.954;2023-03-14T02:55:26;6.40;99.90
64685;DHT22;51109;47.414;18.954;2023-03-14T02:57:52;6.40;99.90
64685;DHT22;51109;47.414;18.954;2023-03-14T03:00:20;6.50;99.90
64685;DHT22;51109;47.414;18.954;2023-03-14T03:02:46;6.40;99.90
64685;DHT22;51109;47.414;18.954;2023-03-14T03:05:12;6.50;99.90
64685;DHT22;51109;47.414;18.954;2023-03-14T03:07:38;6.60;99.90
64685;DHT22;51109;47.414;18.954;2023-03-14T03:10:04;6.60;99.90
64685;DHT22;51109;47.414;18.954;2023-03-14T03:12:33;6.60;99.90
64685;DHT22;51109;47.414;18.954;2023-03-14T03:14:58;6.70;99.90
64685;DHT22;51109;47.414;18.954;2023-03-14T03:17:24;6.80;99.90
64685;DHT22;51109;47.414;18.954;2023-03-14T03:19:50;6.70;99.90
64685;DHT22;51109;47.414;18.954;2023-03-14T03:22:16;6.70;99.90
64685;DHT22;51109;47.414;18.954;2023-03-14T03:24:42;6.70;99.90
64685;DHT22;51109;47.414;18.954;2023-03-14T03:27:08;6.80;99.90
64685;DHT22;51109;47.414;18.954;2023-03-14T03:29:34;6.70;99.90
64685;DHT22;51109;47.414;18.954;2023-03-14T03:32:00;6.60;99.90
64685;DHT22;51109;47.414;18.954;2023-03-14T03:34:27;6.60;99.90
64685;DHT22;51109;47.414;18.954;2023-03-14T03:36:56;6.60;99.90
64685;DHT22;51109;47.414;18.954;2023-03-14T03:39:22;6.60;99.90
64685;DHT22;51109;47.414;18.954;2023-03-14T03:41:48;6.60;99.90
64685;DHT22;51109;47.414;18.954;2023-03-14T03:44:14;6.60;99.90
64685;DHT22;51109;47.414;18.954;2023-03-14T03:46:40;6.60;99.90
64685;DHT22;51109;47.414;18.954;2023-03-14T03:49:05;6.60;99.90
64685;DHT22;51109;47.414;18.954;2023-03-14T03:51:31;6.70;99.90
64685;DHT22;51109;47.414;18.954;2023-03-14T03:53:57;6.70;99.90
64685;DHT22;51109;47.414;18.954;2023-03-14T03:56:23;6.70;99.90
64685;DHT22;51109;47.414;18.954;2023-03-14T03:58:49;6.70;99.90
64685;DHT22;51109;47.414;18.954;2023-03-14T04:01:15;6.70;99.90
64685;DHT22;51109;47.414;18.954;2023-03-14T04:03:41;6.80;99.90
64685;DHT22;51109;47.414;18.954;2023-03-14T04:06:10;6.80;99.90
64685;DHT22;51109;47.414;18.954;2023-03-14T04:08:36;6.80;99.90
64685;DHT22;51109;47.414;18.954;2023-03-14T04:11:03;6.80;99.90
64685;DHT22;51109;47.414;18.954;2023-03-14T04:13:29;6.80;99.90
64685;DHT22;51109;47.414;18.954;2023-03-14T04:15:55;6.80;99.90
64685;DHT22;51109;47.414;18.954;2023-03-14T04:18:22;6.90;99.90
64685;DHT22;51109;47.414;18.954;2023-03-14T04:20:55;6.90;99.90
64685;DHT22;51109;47.414;18.954;2023-03-14T04:23:23;6.90;99.90
64685;DHT22;51109;47.414;18.954;2023-03-14T04:25:52;6.90;99.90
64685;DHT22;51109;47.414;18.954;2023-03-14T04:28:18;7.00;99.90
64685;DHT22;51109;47.414;18.954;2023-03-14T04:30:45;7.00;99.90
64685;DHT22;51109;47.414;18.954;2023-03-14T04:33:11;7.00;99.90
64685;DHT22;51109;47.414;18.954;2023-03-14T04:35:38;6.90;99.90
64685;DHT22;51109;47.414;18.954;2023-03-14T04:38:04;6.90;99.90
64685;DHT22;51109;47.414;18.954;2023-03-14T04:40:30;6.90;99.90
64685;DHT22;51109;47.414;18.954;2023-03-14T04:42:56;6.90;99.90
64685;DHT22;51109;47.414;18.954;2023-03-14T04:45:22;6.90;99.90
64685;DHT22;51109;47.414;18.954;2023-03-14T04:47:47;6.90;99.90
64685;DHT22;51109;47.414;18.954;2023-03-14T04:50:14;6.90;99.90
64685;DHT22;51109;47.414;18.954;2023-03-14T04:52:40;6.90;99.90
64685;DHT22;51109;47.414;18.954;2023-03-14T04:55:06;6.90;99.90
64685;DHT22;51109;47.414;18.954;2023-03-14T04:57:32;6.90;99.90
64685;DHT22;51109;47.414;18.954;2023-03-14T04:59:59;6.90;99.90
64685;DHT22;51109;47.414;18.954;2023-03-14T05:02:26;6.90;99.90
64685;DHT22;51109;47.414;18.954;2023-03-14T05:04:52;6.90;99.90
64685;DHT22;51109;47.414;18.954;2023-03-14T05:07:18;7.00;99.90
64685;DHT22;51109;47.414;18.954;2023-03-14T05:09:46;7.00;99.90
64685;DHT22;51109;47.414;18.954;2023-03-14T05:12:11;7.00;99.90
64685;DHT22;51109;47.414;18.954;2023-03-14T05:14:37;7.00;99.90
64685;DHT22;51109;47.414;18.954;2023-03-14T05:17:05;7.00;99.90
64685;DHT22;51109;47.414;18.954;2023-03-14T05:19:36;7.00;99.90
64685;DHT22;51109;47.414;18.954;2023-03-14T05:22:01;7.10;99.90
64685;DHT22;51109;47.414;18.954;2023-03-14T05:24:27;7.10;99.90
64685;DHT22;51109;47.414;18.954;2023-03-14T05:26:53;7.10;99.90
64685;DHT22;51109;47.414;18.954;2023-03-14T05:29:19;7.20;99.90
64685;DHT22;51109;47.414;18.954;2023-03-14T05:31:45;7.20;99.90
64685;DHT22;51109;47.414;18.954;2023-03-14T05:34:11;7.20;99.90
64685;DHT22;51109;47.414;18.954;2023-03-14T05:36:38;7.20;99.90
64685;DHT22;51109;47.414;18.954;2023-03-14T05:39:04;7.30;99.90
64685;DHT22;51109;47.414;18.954;2023-03-14T05:41:30;7.30;99.90
64685;DHT22;51109;47.414;18.954;2023-03-14T05:43:56;7.30;99.90
64685;DHT22;51109;47.414;18.954;2023-03-14T05:46:21;7.40;99.90
64685;DHT22;51109;47.414;18.954;2023-03-14T05:48:47;7.50;99.90
64685;DHT22;51109;47.414;18.954;2023-03-14T05:51:13;7.60;99.90
64685;DHT22;51109;47.414;18.954;2023-03-14T05:53:39;7.60;99.90
64685;DHT22;51109;47.414;18.954;2023-03-14T05:56:05;7.70;99.90
64685;DHT22;51109;47.414;18.954;2023-03-14T05:58:32;7.80;99.90
64685;DHT22;51109;47.414;18.954;2023-03-14T06:01:02;7.90;99.90
64685;DHT22;51109;47.414;18.954;2023-03-14T06:03:28;8.00;99.90
64685;DHT22;51109;47.414;18.954;2023-03-14T06:05:54;8.20;99.90
64685;DHT22;51109;47.414;18.954;2023-03-14T06:08:20;8.40;99.90
64685;DHT22;51109;47.414;18.954;2023-03-14T06:10:46;8.50;99.90
64685;DHT22;51109;47.414;18.954;2023-03-14T06:13:12;8.70;99.90
64685;DHT22;51109;47.414;18.954;2023-03-14T06:15:38;8.90;99.90
64685;DHT22;51109;47.414;18.954;2023-03-14T06:18:04;8.90;99.90
64685;DHT22;51109;47.414;18.954;2023-03-14T06:20:30;9.00;99.90
64685;DHT22;51109;47.414;18.954;2023-03-14T06:22:56;9.10;99.90
64685;DHT22;51109;47.414;18.954;2023-03-14T06:25:22;9.20;99.90
64685;DHT22;51109;47.414;18.954;2023-03-14T06:27:48;9.20;99.90
64685;DHT22;51109;47.414;18.954;2023-03-14T06:30:14;9.20;99.90
64685;DHT22;51109;47.414;18.954;2023-03-14T06:32:40;9.10;99.90
64685;DHT22;51109;47.414;18.954;2023-03-14T06:35:07;9.10;99.90
64685;DHT22;51109;47.414;18.954;2023-03-14T06:37:33;9.10;99.90
64685;DHT22;51109;47.414;18.954;2023-03-14T06:40:00;9.10;99.90
64685;DHT22;51109;47.414;18.954;2023-03-14T06:42:26;9.20;99.90
64685;DHT22;51109;47.414;18.954;2023-03-14T06:44:52;9.30;99.90
64685;DHT22;51109;47.414;18.954;2023-03-14T06:47:18;9.30;99.90
64685;DHT22;51109;47.414;18.954;2023-03-14T06:49:44;9.30;99.90
64685;DHT22;51109;47.414;18.954;2023-03-14T06:52:10;9.30;99.90
64685;DHT22;51109;47.414;18.954;2023-03-14T06:54:36;9.30;99.90
64685;DHT22;51109;47.414;18.954;2023-03-14T06:57:02;9.40;99.90
64685;DHT22;51109;47.414;18.954;2023-03-14T06:59:28;9.40;99.90
64685;DHT22;51109;47.414;18.954;2023-03-14T07:01:54;9.50;99.90
64685;DHT22;51109;47.414;18.954;2023-03-14T07:04:20;9.50;99.90
64685;DHT22;51109;47.414;18.954;2023-03-14T07:06:46;9.50;99.90
64685;DHT22;51109;47.414;18.954;2023-03-14T07:09:14;9.60;99.90
64685;DHT22;51109;47.414;18.954;2023-03-14T07:11:40;9.60;99.90
64685;DHT22;51109;47.414;18.954;2023-03-14T07:14:06;9.70;99.90
64685;DHT22;51109;47.414;18.954;2023-03-14T07:16:32;9.80;99.90
64685;DHT22;51109;47.414;18.954;2023-03-14T07:18:59;9.90;99.90
64685;DHT22;51109;47.414;18.954;2023-03-14T07:21:27;10.00;99.90
64685;DHT22;51109;47.414;18.954;2023-03-14T07:23:53;10.10;99.90
64685;DHT22;51109;47.414;18.954;2023-03-14T07:26:19;10.10;99.90
64685;DHT22;51109;47.414;18.954;2023-03-14T07:28:45;10.20;99.90
64685;DHT22;51109;47.414;18.954;2023-03-14T07:31:12;10.30;99.90
64685;DHT22;51109;47.414;18.954;2023-03-14T07:33:38;10.40;99.90
64685;DHT22;51109;47.414;18.954;2023-03-14T07:36:04;10.50;99.90
64685;DHT22;51109;47.414;18.954;2023-03-14T07:38:30;10.60;99.90
64685;DHT22;51109;47.414;18.954;2023-03-14T07:41:05;10.80;99.90
64685;DHT22;51109;47.414;18.954;2023-03-14T07:43:31;10.90;99.90
64685;DHT22;51109;47.414;18.954;2023-03-14T07:45:58;11.00;99.90
64685;DHT22;51109;47.414;18.954;2023-03-14T07:48:24;11.10;99.90
64685;DHT22;51109;47.414;18.954;2023-03-14T07:50:53;11.20;99.90
64685;DHT22;51109;47.414;18.954;2023-03-14T07:53:20;11.40;99.90
64685;DHT22;51109;47.414;18.954;2023-03-14T07:55:46;11.50;99.90
64685;DHT22;51109;47.414;18.954;2023-03-14T07:58:13;11.60;99.90
64685;DHT22;51109;47.414;18.954;2023-03-14T08:00:39;11.70;99.90
64685;DHT22;51109;47.414;18.954;2023-03-14T08:03:05;11.80;99.90
64685;DHT22;51109;47.414;18.954;2023-03-14T08:05:34;12.00;99.90
64685;DHT22;51109;47.414;18.954;2023-03-14T08:08:00;12.10;99.90
64685;DHT22;51109;47.414;18.954;2023-03-14T08:10:26;12.20;99.90
64685;DHT22;51109;47.414;18.954;2023-03-14T08:12:55;12.30;99.90
64685;DHT22;51109;47.414;18.954;2023-03-14T08:15:23;12.50;99.90
64685;DHT22;51109;47.414;18.954;2023-03-14T08:17:49;12.60;99.90
64685;DHT22;51109;47.414;18.954;2023-03-14T08:20:24;12.70;99.90
64685;DHT22;51109;47.414;18.954;2023-03-14T08:22:51;12.80;99.90
64685;DHT22;51109;47.414;18.954;2023-03-14T08:25:17;13.00;99.90
64685;DHT22;51109;47.414;18.954;2023-03-14T08:27:43;13.10;99.90
64685;DHT22;51109;47.414;18.954;2023-03-14T08:30:12;13.30;99.90
64685;DHT22;51109;47.414;18.954;2023-03-14T08:32:40;13.50;99.90
64685;DHT22;51109;47.414;18.954;2023-03-14T08:35:06;13.70;99.90
64685;DHT22;51109;47.414;18.954;2023-03-14T08:37:33;13.90;99.90
64685;DHT22;51109;47.414;18.954;2023-03-14T08:39:59;14.00;99.90
64685;DHT22;51109;47.414;18.954;2023-03-14T08:42:25;14.20;99.90
64685;DHT22;51109;47.414;18.954;2023-03-14T08:44:52;14.50;99.90
64685;DHT22;51109;47.414;18.954;2023-03-14T08:47:19;14.60;99.90
64685;DHT22;51109;47.414;18.954;2023-03-14T08:49:45;14.80;99.90
64685;DHT22;51109;47.414;18.954;2023-03-14T08:52:11;14.90;99.90
64685;DHT22;51109;47.414;18.954;2023-03-14T08:54:37;15.10;99.90
64685;DHT22;51109;47.414;18.954;2023-03-14T08:57:03;15.10;99.90
64685;DHT22;51109;47.414;18.954;2023-03-14T08:59:29;15.20;99.90
64685;DHT22;51109;47.414;18.954;2023-03-14T09:01:55;15.20;99.90
64685;DHT22;51109;47.414;18.954;2023-03-14T09:04:21;15.30;99.90
64685;DHT22;51109;47.414;18.954;2023-03-14T09:06:47;15.20;99.90
64685;DHT22;51109;47.414;18.954;2023-03-14T09:09:13;15.30;99.90
64685;DHT22;51109;47.414;18.954;2023-03-14T09:11:39;15.40;99.90
64685;DHT22;51109;47.414;18.954;2023-03-14T09:14:06;15.50;99.90
64685;DHT22;51109;47.414;18.954;2023-03-14T09:16:33;15.60;99.90
64685;DHT22;51109;47.414;18.954;2023-03-14T09:18:59;15.80;99.90
64685;DHT22;51109;47.414;18.954;2023-03-14T09:21:26;16.00;99.90
64685;DHT22;51109;47.414;18.954;2023-03-14T09:23:53;16.30;99.90
64685;DHT22;51109;47.414;18.954;2023-03-14T09:26:19;16.20;99.90
64685;DHT22;51109;47.414;18.954;2023-03-14T09:28:45;16.20;99.90
64685;DHT22;51109;47.414;18.954;2023-03-14T09:31:12;16.20;99.90
64685;DHT22;51109;47.414;18.954;2023-03-14T09:33:38;16.30;99.90
64685;DHT22;51109;47.414;18.954;2023-03-14T09:36:05;16.40;99.90
64685;DHT22;51109;47.414;18.954;2023-03-14T09:38:31;16.50;99.90
64685;DHT22;51109;47.414;18.954;2023-03-14T09:41:00;16.50;99.90
64685;DHT22;51109;47.414;18.954;2023-03-14T09:43:29;16.60;99.90
64685;DHT22;51109;47.414;18.954;2023-03-14T09:45:58;16.80;99.90
64685;DHT22;51109;47.414;18.954;2023-03-14T09:48:31;17.00;99.90
64685;DHT22;51109;47.414;18.954;2023-03-14T09:50:59;17.20;99.90
64685;DHT22;51109;47.414;18.954;2023-03-14T09:53:41;17.40;99.90
64685;DHT22;51109;47.414;18.954;2023-03-14T09:56:18;17.50;99.90
64685;DHT22;51109;47.414;18.954;2023-03-14T09:58:49;17.70;99.90
64685;DHT22;51109;47.414;18.954;2023-03-14T10:01:20;17.80;99.90
64685;DHT22;51109;47.414;18.954;2023-03-14T10:03:48;18.10;99.90
64685;DHT22;51109;47.414;18.954;2023-03-14T10:06:15;18.30;99.90
64685;DHT22;51109;47.414;18.954;2023-03-14T10:08:42;18.30;99.90
64685;DHT22;51109;47.414;18.954;2023-03-14T10:11:15;18.40;99.90
64685;DHT22;51109;47.414;18.954;2023-03-14T10:14:08;18.40;99.90
64685;DHT22;51109;47.414;18.954;2023-03-14T10:16:44;18.50;99.90
64685;DHT22;51109;47.414;18.954;2023-03-14T10:19:13;18.40;99.90
64685;DHT22;51109;47.414;18.954;2023-03-14T10:21:41;18.40;99.90
64685;DHT22;51109;47.414;18.954;2023-03-14T10:24:28;18.50;99.90
64685;DHT22;51109;47.414;18.954;2023-03-14T10:27:02;18.70;99.90
64685;DHT22;51109;47.414;18.954;2023-03-14T10:29:32;18.80;99.90
64685;DHT22;51109;47.414;18.954;2023-03-14T10:32:01;18.90;99.90
64685;DHT22;51109;47.414;18.954;2023-03-14T10:34:30;19.00;99.90
64685;DHT22;51109;47.414;18.954;2023-03-14T10:36:59;19.00;99.90
64685;DHT22;51109;47.414;18.954;2023-03-14T10:39:40;18.80;99.90
64685;DHT22;51109;47.414;18.954;2023-03-14T10:44:37;18.70;99.90
64685;DHT22;51109;47.414;18.954;2023-03-14T10:47:04;18.60;99.90
64685;DHT22;51109;47.414;18.954;2023-03-14T10:49:36;18.50;99.90
64685;DHT22;51109;47.414;18.954;2023-03-14T10:54:34;18.60;99.90
64685;DHT22;51109;47.414;18.954;2023-03-14T10:57:01;18.80;99.90
64685;DHT22;51109;47.414;18.954;2023-03-14T10:59:36;18.80;99.90
64685;DHT22;51109;47.414;18.954;2023-03-14T11:07:36;18.90;99.90
64685;DHT22;51109;47.414;18.954;2023-03-14T11:12:55;19.00;99.90
64685;DHT22;51109;47.414;18.954;2023-03-14T11:15:32;19.00;99.90
64685;DHT22;51109;47.414;18.954;2023-03-14T11:18:29;19.00;99.90
64685;DHT22;51109;47.414;18.954;2023-03-14T11:21:02;18.90;99.90
64685;DHT22;51109;47.414;18.954;2023-03-14T11:23:32;18.80;99.90
64685;DHT22;51109;47.414;18.954;2023-03-14T11:28:54;18.90;99.90
64685;DHT22;51109;47.414;18.954;2023-03-14T11:31:26;18.80;99.90
64685;DHT22;51109;47.414;18.954;2023-03-14T11:36:53;18.70;99.90
64685;DHT22;51109;47.414;18.954;2023-03-14T11:39:24;18.90;99.90
64685;DHT22;51109;47.414;18.954;2023-03-14T11:41:53;19.00;99.90
64685;DHT22;51109;47.414;18.954;2023-03-14T11:44:30;19.20;99.90
64685;DHT22;51109;47.414;18.954;2023-03-14T11:47:29;19.30;99.90
64685;DHT22;51109;47.414;18.954;2023-03-14T11:50:02;19.30;99.90
64685;DHT22;51109;47.414;18.954;2023-03-14T11:52:44;19.30;99.90
64685;DHT22;51109;47.414;18.954;2023-03-14T11:55:21;19.30;99.90
64685;DHT22;51109;47.414;18.954;2023-03-14T11:57:55;19.40;99.90
64685;DHT22;51109;47.414;18.954;2023-03-14T12:00:24;19.40;99.90
64685;DHT22;51109;47.414;18.954;2023-03-14T12:11:14;19.40;99.90
64685;DHT22;51109;47.414;18.954;2023-03-14T12:13:49;19.40;99.90
64685;DHT22;51109;47.414;18.954;2023-03-14T12:16:35;19.50;99.90
64685;DHT22;51109;47.414;18.954;2023-03-14T12:24:20;19.30;99.90
64685;DHT22;51109;47.414;18.954;2023-03-14T12:26:56;19.20;99.90
64685;DHT22;51109;47.414;18.954;2023-03-14T12:29:22;19.20;99.90
64685;DHT22;51109;47.414;18.954;2023-03-14T12:34:51;19.00;99.90
64685;DHT22;51109;47.414;18.954;2023-03-14T12:39:58;19.00;99.90
64685;DHT22;51109;47.414;18.954;2023-03-14T12:45:36;19.00;99.90
64685;DHT22;51109;47.414;18.954;2023-03-14T12:48:22;18.90;99.90
64685;DHT22;51109;47.414;18.954;2023-03-14T12:51:12;18.90;99.90
64685;DHT22;51109;47.414;18.954;2023-03-14T12:56:34;18.80;99.90
64685;DHT22;51109;47.414;18.954;2023-03-14T13:01:52;18.70;99.90
64685;DHT22;51109;47.414;18.954;2023-03-14T13:04:19;18.50;99.90
64685;DHT22;51109;47.414;18.954;2023-03-14T13:06:57;18.40;99.90
64685;DHT22;51109;47.414;18.954;2023-03-14T13:12:00;18.30;99.90
64685;DHT22;51109;47.414;18.954;2023-03-14T13:14:33;18.30;99.90
64685;DHT22;51109;47.414;18.954;2023-03-14T13:17:00;18.30;99.90
64685;DHT22;51109;47.414;18.954;2023-03-14T13:19:30;18.20;99.90
64685;DHT22;51109;47.414;18.954;2023-03-14T13:22:21;18.10;99.90
64685;DHT22;51109;47.414;18.954;2023-03-14T13:24:47;18.10;99.90
64685;DHT22;51109;47.414;18.954;2023-03-14T13:27:20;18.00;99.90
64685;DHT22;51109;47.414;18.954;2023-03-14T13:29:51;18.00;99.90
64685;DHT22;51109;47.414;18.954;2023-03-14T13:32:20;17.90;99.90
64685;DHT22;51109;47.414;18.954;2023-03-14T13:34:46;17.80;99.90
64685;DHT22;51109;47.414;18.954;2023-03-14T13:37:20;17.80;99.90
64685;DHT22;51109;47.414;18.954;2023-03-14T13:40:04;17.80;99.90
64685;DHT22;51109;47.414;18.954;2023-03-14T13:42:31;17.80;99.90
64685;DHT22;51109;47.414;18.954;2023-03-14T13:44:57;17.80;99.90
64685;DHT22;51109;47.414;18.954;2023-03-14T13:47:24;17.80;99.90
64685;DHT22;51109;47.414;18.954;2023-03-14T13:49:51;17.70;99.90
64685;DHT22;51109;47.414;18.954;2023-03-14T13:52:31;17.80;99.90
64685;DHT22;51109;47.414;18.954;2023-03-14T13:54:59;17.80;99.90
64685;DHT22;51109;47.414;18.954;2023-03-14T13:57:26;17.80;99.90
64685;DHT22;51109;47.414;18.954;2023-03-14T14:00:05;17.90;99.90
64685;DHT22;51109;47.414;18.954;2023-03-14T14:02:36;17.90;99.90
64685;DHT22;51109;47.414;18.954;2023-03-14T14:05:04;17.80;99.90
64685;DHT22;51109;47.414;18.954;2023-03-14T14:07:30;17.80;99.90
64685;DHT22;51109;47.414;18.954;2023-03-14T14:09:58;17.80;99.90
64685;DHT22;51109;47.414;18.954;2023-03-14T14:12:30;17.80;99.90
64685;DHT22;51109;47.414;18.954;2023-03-14T14:15:21;17.90;99.90
64685;DHT22;51109;47.414;18.954;2023-03-14T14:18:03;17.90;99.90
64685;DHT22;51109;47.414;18.954;2023-03-14T14:20:37;17.90;99.90
64685;DHT22;51109;47.414;18.954;2023-03-14T14:23:07;17.90;99.90
64685;DHT22;51109;47.414;18.954;2023-03-14T14:25:36;17.90;99.90
64685;DHT22;51109;47.414;18.954;2023-03-14T14:28:35;17.90;99.90
64685;DHT22;51109;47.414;18.954;2023-03-14T14:36:28;17.90;99.90
64685;DHT22;51109;47.414;18.954;2023-03-14T14:39:04;17.90;99.90
64685;DHT22;51109;47.414;18.954;2023-03-14T14:41:33;17.90;99.90
64685;DHT22;51109;47.414;18.954;2023-03-14T14:44:03;17.80;99.90
64685;DHT22;51109;47.414;18.954;2023-03-14T14:46:31;17.90;99.90
64685;DHT22;51109;47.414;18.954;2023-03-14T14:49:14;17.80;99.90
64685;DHT22;51109;47.414;18.954;2023-03-14T14:51:43;17.80;99.90
64685;DHT22;51109;47.414;18.954;2023-03-14T14:54:19;17.70;99.90
64685;DHT22;51109;47.414;18.954;2023-03-14T14:56:51;17.70;99.90
64685;DHT22;51109;47.414;18.954;2023-03-14T14:59:26;17.60;99.90
64685;DHT22;51109;47.414;18.954;2023-03-14T15:02:02;17.60;99.90
64685;DHT22;51109;47.414;18.954;2023-03-14T15:04:30;17.50;99.90
64685;DHT22;51109;47.414;18.954;2023-03-14T15:06:57;17.40;99.90
64685;DHT22;51109;47.414;18.954;2023-03-14T15:09:23;17.40;99.90
64685;DHT22;51109;47.414;18.954;2023-03-14T15:11:50;17.40;99.90
64685;DHT22;51109;47.414;18.954;2023-03-14T15:14:16;17.30;99.90
64685;DHT22;51109;47.414;18.954;2023-03-14T15:16:42;17.20;99.90
64685;DHT22;51109;47.414;18.954;2023-03-14T15:19:19;17.10;99.90
64685;DHT22;51109;47.414;18.954;2023-03-14T15:21:45;17.10;99.90
64685;DHT22;51109;47.414;18.954;2023-03-14T15:24:11;17.10;99.90
64685;DHT22;51109;47.414;18.954;2023-03-14T15:26:37;17.10;99.90
64685;DHT22;51109;47.414;18.954;2023-03-14T15:29:03;17.10;99.90
64685;DHT22;51109;47.414;18.954;2023-03-14T15:31:30;17.10;99.90
64685;DHT22;51109;47.414;18.954;2023-03-14T15:33:56;17.00;99.90
64685;DHT22;51109;47.414;18.954;2023-03-14T15:36:25;16.90;99.90
64685;DHT22;51109;47.414;18.954;2023-03-14T15:38:51;16.90;99.90
64685;DHT22;51109;47.414;18.954;2023-03-14T15:41:19;16.90;99.90
64685;DHT22;51109;47.414;18.954;2023-03-14T15:43:46;16.80;99.90
64685;DHT22;51109;47.414;18.954;2023-03-14T15:46:12;16.80;99.90
64685;DHT22;51109;47.414;18.954;2023-03-14T15:48:40;16.80;99.90
64685;DHT22;51109;47.414;18.954;2023-03-14T15:51:06;16.70;99.90
64685;DHT22;51109;47.414;18.954;2023-03-14T15:53:32;16.80;99.90
64685;DHT22;51109;47.414;18.954;2023-03-14T15:55:58;16.80;99.90
64685;DHT22;51109;47.414;18.954;2023-03-14T15:58:24;16.70;99.90
64685;DHT22;51109;47.414;18.954;2023-03-14T16:00:51;16.40;99.90
64685;DHT22;51109;47.414;18.954;2023-03-14T16:03:17;16.00;99.90
64685;DHT22;51109;47.414;18.954;2023-03-14T16:05:44;15.80;99.90
64685;DHT22;51109;47.414;18.954;2023-03-14T16:08:10;15.50;99.90
64685;DHT22;51109;47.414;18.954;2023-03-14T16:10:36;15.30;99.90
64685;DHT22;51109;47.414;18.954;2023-03-14T16:13:02;15.10;99.90
64685;DHT22;51109;47.414;18.954;2023-03-14T16:15:28;14.90;99.90
64685;DHT22;51109;47.414;18.954;2023-03-14T16:17:54;14.70;99.90
64685;DHT22;51109;47.414;18.954;2023-03-14T16:20:23;14.50;99.90
64685;DHT22;51109;47.414;18.954;2023-03-14T16:22:49;14.40;99.90
64685;DHT22;51109;47.414;18.954;2023-03-14T16:25:15;14.20;99.90
64685;DHT22;51109;47.414;18.954;2023-03-14T16:27:41;14.10;99.90
64685;DHT22;51109;47.414;18.954;2023-03-14T16:30:09;14.10;99.90
64685;DHT22;51109;47.414;18.954;2023-03-14T16:32:38;13.90;99.90
64685;DHT22;51109;47.414;18.954;2023-03-14T16:35:04;13.80;99.90
64685;DHT22;51109;47.414;18.954;2023-03-14T16:37:31;13.80;99.90
64685;DHT22;51109;47.414;18.954;2023-03-14T16:39:57;13.70;99.90
64685;DHT22;51109;47.414;18.954;2023-03-14T16:42:23;13.70;99.90